createdAt,value
2017-07-08T00:00:41.711Z,21.6
2017-07-08T00:01:43.451Z,21.7
2017-07-08T00:02:46.759Z,21.7
2017-07-08T00:03:48.387Z,21.6
2017-07-08T00:04:51.979Z,21.7
2017-07-08T00:05:53.602Z,21.7
2017-07-08T00:06:56.982Z,21.7
2017-07-08T00:07:58.710Z,21.8
2017-07-08T00:09:01.955Z,21.7
2017-07-08T00:10:04.119Z,21.7
2017-07-08T00:11:07.157Z,21.7
2017-07-08T00:12:08.896Z,21.7
2017-07-08T00:13:12.303Z,21.8
2017-07-08T00:14:13.937Z,21.7
2017-07-08T00:15:16.846Z,21.7
2017-07-08T00:16:18.534Z,21.8
2017-07-08T00:17:22.232Z,21.8
2017-07-08T00:18:23.983Z,21.8
2017-07-08T00:19:27.258Z,21.8
2017-07-08T00:20:29.330Z,21.8
2017-07-08T00:21:32.275Z,21.7
2017-07-08T00:22:34.001Z,21.8
2017-07-08T00:23:37.439Z,21.8
2017-07-08T00:24:39.658Z,21.8
2017-07-08T00:25:42.769Z,21.8
2017-07-08T00:26:44.502Z,21.8
2017-07-08T00:27:47.683Z,21.8
2017-07-08T00:28:49.303Z,21.8
2017-07-08T00:29:52.862Z,21.7
2017-07-08T00:30:54.829Z,21.7
2017-07-08T00:31:58.216Z,21.6
2017-07-08T00:32:59.945Z,21.7
2017-07-08T00:34:03.381Z,21.7
2017-07-08T00:35:04.997Z,21.7
2017-07-08T00:36:08.479Z,21.7
2017-07-08T00:37:10.111Z,21.7
2017-07-08T00:38:14.755Z,21.6
2017-07-08T00:39:16.390Z,21.8
2017-07-08T00:40:19.792Z,21.7
2017-07-08T00:41:21.811Z,21.7
2017-07-08T00:42:24.668Z,21.7
2017-07-08T00:43:26.297Z,21.7
2017-07-08T00:44:29.708Z,21.8
2017-07-08T00:45:31.430Z,21.6
2017-07-08T00:46:34.735Z,21.7
2017-07-08T00:47:36.492Z,21.8
2017-07-08T00:48:39.742Z,21.7
2017-07-08T00:49:48.290Z,21.7
2017-07-08T00:50:50.018Z,21.7
2017-07-08T00:51:52.077Z,21.7
2017-07-08T00:52:53.791Z,21.7
2017-07-08T00:53:55.443Z,21.7
2017-07-08T00:54:57.074Z,21.6
2017-07-08T00:55:58.712Z,21.6
2017-07-08T00:57:00.773Z,21.6
2017-07-08T00:58:02.525Z,21.6
2017-07-08T00:59:04.143Z,21.6
2017-07-08T01:00:05.812Z,21.5
2017-07-08T01:01:07.434Z,21.5
2017-07-08T01:02:09.501Z,21.5
2017-07-08T01:03:11.176Z,21.6
2017-07-08T01:04:12.825Z,21.5
2017-07-08T01:05:14.474Z,21.5
2017-07-08T01:06:16.236Z,21.5
2017-07-08T01:07:18.341Z,21.5
2017-07-08T01:08:20.099Z,21.7
2017-07-08T01:09:21.831Z,21.6
2017-07-08T01:10:23.607Z,21.6
2017-07-08T01:11:25.349Z,21.6
2017-07-08T01:12:27.481Z,21.7
2017-07-08T01:13:29.222Z,21.6
2017-07-08T01:14:30.892Z,21.6
2017-07-08T01:15:32.513Z,21.7
2017-07-08T01:16:34.150Z,21.6
2017-07-08T01:17:36.166Z,21.7
2017-07-08T01:18:37.934Z,21.7
2017-07-08T01:19:39.623Z,21.6
2017-07-08T01:20:41.380Z,21.7
2017-07-08T01:21:43.010Z,21.6
2017-07-08T01:22:44.991Z,21.6
2017-07-08T01:23:46.687Z,21.5
2017-07-08T01:24:48.425Z,21.5
2017-07-08T01:25:50.134Z,21.6
2017-07-08T01:26:51.890Z,21.5
2017-07-08T01:27:53.866Z,21.5
2017-07-08T01:28:55.613Z,21.5
2017-07-08T01:29:57.230Z,21.5
2017-07-08T01:30:58.883Z,21.5
2017-07-08T01:32:00.602Z,21.5
2017-07-08T01:33:02.585Z,21.5
2017-07-08T01:34:04.316Z,21.5
2017-07-08T01:35:06.057Z,21.5
2017-07-08T01:36:07.708Z,21.4
2017-07-08T01:37:09.414Z,21.5
2017-07-08T01:38:11.453Z,21.5
2017-07-08T01:39:13.102Z,21.5
2017-07-08T01:40:14.826Z,21.4
2017-07-08T01:41:16.566Z,21.5
2017-07-08T01:42:18.269Z,21.5
2017-07-08T01:43:20.342Z,21.4
2017-07-08T01:44:22.054Z,21.5
2017-07-08T01:45:23.695Z,21.5
2017-07-08T01:46:25.414Z,21.5
2017-07-08T01:47:27.065Z,21.4
2017-07-08T01:48:29.104Z,21.4
2017-07-08T01:49:30.852Z,21.5
2017-07-08T01:50:32.574Z,21.4
2017-07-08T01:51:34.250Z,21.3
2017-07-08T01:52:35.865Z,21.3
2017-07-08T01:53:37.986Z,21.3
2017-07-08T01:54:39.705Z,21.2
2017-07-08T01:55:41.333Z,21.3
2017-07-08T01:56:43.041Z,21.2
2017-07-08T01:57:44.701Z,21.2
2017-07-08T01:58:46.765Z,21.2
2017-07-08T01:59:48.520Z,21.2
2017-07-08T02:00:50.280Z,21.3
2017-07-08T02:01:51.963Z,21.2
2017-07-08T02:02:53.605Z,21.3
2017-07-08T02:03:55.732Z,21.2
2017-07-08T02:04:57.448Z,21.2
2017-07-08T02:05:59.207Z,21.2
2017-07-08T02:07:00.857Z,21.3
2017-07-08T02:08:02.602Z,21.3
2017-07-08T02:09:04.514Z,21.2
2017-07-08T02:10:06.169Z,21.1
2017-07-08T02:11:07.879Z,21.0
2017-07-08T02:12:09.631Z,21.0
2017-07-08T02:13:11.231Z,21.0
2017-07-08T02:14:13.403Z,20.9
2017-07-08T02:15:15.115Z,20.8
2017-07-08T02:16:16.849Z,20.8
2017-07-08T02:17:18.515Z,20.9
2017-07-08T02:18:20.213Z,20.8
2017-07-08T02:19:22.164Z,20.8
2017-07-08T02:20:23.812Z,20.9
2017-07-08T02:21:25.441Z,20.9
2017-07-08T02:22:27.088Z,20.9
2017-07-08T02:23:28.813Z,20.9
2017-07-08T02:24:30.810Z,20.9
2017-07-08T02:25:32.442Z,20.9
2017-07-08T02:26:34.084Z,20.9
2017-07-08T02:27:35.750Z,21.0
2017-07-08T02:28:37.687Z,20.8
2017-07-08T02:29:39.710Z,20.8
2017-07-08T02:30:41.351Z,20.9
2017-07-08T02:31:42.998Z,20.9
2017-07-08T02:32:44.659Z,20.9
2017-07-08T02:33:46.383Z,20.9
2017-07-08T02:34:48.333Z,20.9
2017-07-08T02:35:49.951Z,20.9
2017-07-08T02:36:51.617Z,20.7
2017-07-08T02:37:53.319Z,20.7
2017-07-08T02:38:55.051Z,20.7
2017-07-08T02:39:57.134Z,20.7
2017-07-08T02:40:58.899Z,20.6
2017-07-08T02:42:00.552Z,20.7
2017-07-08T02:43:02.247Z,20.7
2017-07-08T02:44:03.901Z,20.7
2017-07-08T02:45:05.948Z,20.7
2017-07-08T02:46:07.681Z,20.6
2017-07-08T02:47:09.436Z,20.6
2017-07-08T02:48:11.189Z,20.6
2017-07-08T02:49:12.944Z,20.6
2017-07-08T02:50:14.979Z,20.5
2017-07-08T02:51:16.641Z,20.5
2017-07-08T02:52:18.330Z,20.4
2017-07-08T02:53:20.100Z,20.4
2017-07-08T02:54:21.803Z,20.3
2017-07-08T02:55:23.792Z,20.2
2017-07-08T02:56:25.503Z,20.4
2017-07-08T02:57:27.171Z,20.3
2017-07-08T02:58:28.899Z,20.2
2017-07-08T02:59:30.531Z,20.2
2017-07-08T03:00:32.509Z,20.3
2017-07-08T03:01:34.145Z,20.3
2017-07-08T03:02:35.760Z,20.4
2017-07-08T03:03:37.425Z,20.3
2017-07-08T03:04:40.143Z,20.4
2017-07-08T03:05:42.251Z,20.3
2017-07-08T03:06:43.964Z,20.3
2017-07-08T03:07:45.614Z,20.1
2017-07-08T03:08:47.234Z,20.2
2017-07-08T03:09:48.905Z,20.1
2017-07-08T03:10:51.043Z,20.1
2017-07-08T03:11:52.814Z,20.0
2017-07-08T03:12:54.443Z,20.0
2017-07-08T03:13:56.182Z,20.0
2017-07-08T03:14:57.881Z,19.9
2017-07-08T03:16:00.037Z,19.9
2017-07-08T03:17:01.764Z,19.9
2017-07-08T03:18:03.385Z,19.9
2017-07-08T03:19:05.787Z,19.8
2017-07-08T03:20:07.422Z,19.9
2017-07-08T03:21:10.731Z,19.7
2017-07-08T03:22:12.467Z,19.8
2017-07-08T03:23:15.690Z,19.8
2017-07-08T03:24:17.311Z,19.8
2017-07-08T03:25:20.759Z,19.7
2017-07-08T03:26:22.791Z,19.7
2017-07-08T03:27:25.702Z,19.7
2017-07-08T03:28:27.350Z,19.7
2017-07-08T03:29:31.013Z,19.8
2017-07-08T03:30:32.765Z,19.7
2017-07-08T03:31:35.809Z,19.8
2017-07-08T03:32:37.520Z,19.8
2017-07-08T03:33:41.248Z,19.7
2017-07-08T03:34:42.991Z,19.7
2017-07-08T03:35:46.542Z,19.7
2017-07-08T03:36:48.490Z,19.7
2017-07-08T03:37:51.468Z,19.7
2017-07-08T03:38:53.109Z,19.6
2017-07-08T03:39:56.452Z,19.7
2017-07-08T03:40:58.168Z,19.7
2017-07-08T03:42:01.494Z,19.7
2017-07-08T03:43:03.223Z,19.6
2017-07-08T03:44:06.449Z,19.7
2017-07-08T03:45:08.092Z,19.7
2017-07-08T03:46:11.398Z,19.7
2017-07-08T03:47:13.516Z,19.7
2017-07-08T03:48:16.831Z,19.8
2017-07-08T03:49:18.458Z,19.7
2017-07-08T03:50:21.609Z,19.7
2017-07-08T03:51:23.336Z,19.7
2017-07-08T03:52:26.849Z,19.7
2017-07-08T03:53:28.597Z,19.7
2017-07-08T03:54:31.855Z,19.6
2017-07-08T03:55:33.460Z,19.6
2017-07-08T03:56:36.936Z,19.6
2017-07-08T03:57:39.127Z,19.6
2017-07-08T03:58:41.985Z,19.7
2017-07-08T03:59:43.721Z,19.6
2017-07-08T04:00:46.890Z,19.6
2017-07-08T04:01:48.632Z,19.6
2017-07-08T04:02:52.034Z,19.7
2017-07-08T04:03:53.671Z,19.6
2017-07-08T04:04:57.042Z,19.6
2017-07-08T04:05:58.784Z,19.6
2017-07-08T04:07:00.790Z,19.6
2017-07-08T04:08:02.854Z,19.6
2017-07-08T04:09:05.761Z,19.6
2017-07-08T04:10:07.477Z,19.5
2017-07-08T04:11:10.759Z,19.6
2017-07-08T04:12:12.496Z,19.6
2017-07-08T04:13:15.750Z,19.6
2017-07-08T04:14:17.479Z,19.6
2017-07-08T04:15:21.001Z,19.5
2017-07-08T04:16:22.621Z,19.5
2017-07-08T04:17:26.348Z,19.6
2017-07-08T04:18:28.334Z,19.5
2017-07-08T04:19:31.226Z,19.5
2017-07-08T04:20:32.863Z,19.4
2017-07-08T04:21:36.311Z,19.6
2017-07-08T04:22:38.038Z,19.5
2017-07-08T04:23:41.686Z,19.5
2017-07-08T04:24:43.324Z,19.5
2017-07-08T04:25:46.715Z,19.5
2017-07-08T04:26:48.455Z,19.5
2017-07-08T04:27:51.633Z,19.5
2017-07-08T04:28:53.692Z,19.5
2017-07-08T04:29:56.690Z,19.5
2017-07-08T04:30:58.420Z,19.5
2017-07-08T04:32:01.713Z,19.4
2017-07-08T04:33:03.355Z,19.4
2017-07-08T04:34:06.694Z,19.5
2017-07-08T04:35:08.464Z,19.5
2017-07-08T04:36:11.865Z,19.5
2017-07-08T04:37:13.498Z,19.4
2017-07-08T04:38:16.443Z,19.4
2017-07-08T04:39:18.383Z,19.4
2017-07-08T04:40:21.873Z,19.3
2017-07-08T04:41:23.616Z,19.4
2017-07-08T04:42:27.116Z,19.4
2017-07-08T04:43:28.846Z,19.4
2017-07-08T04:44:32.210Z,19.4
2017-07-08T04:45:33.957Z,19.3
2017-07-08T04:46:37.523Z,19.4
2017-07-08T04:47:39.175Z,19.3
2017-07-08T04:48:42.661Z,19.4
2017-07-08T04:49:44.514Z,19.3
2017-07-08T04:50:47.561Z,19.4
2017-07-08T04:51:49.287Z,19.3
2017-07-08T04:52:52.582Z,19.3
2017-07-08T04:53:54.320Z,19.3
2017-07-08T04:54:57.617Z,19.4
2017-07-08T04:55:59.256Z,19.3
2017-07-08T04:57:02.668Z,19.4
2017-07-08T04:58:04.313Z,19.4
2017-07-08T04:59:07.767Z,19.3
2017-07-08T05:00:09.918Z,19.3
2017-07-08T05:01:12.398Z,19.4
2017-07-08T05:02:14.024Z,19.3
2017-07-08T05:03:17.631Z,19.3
2017-07-08T05:04:19.330Z,19.4
2017-07-08T05:05:23.354Z,19.3
2017-07-08T05:06:24.994Z,19.3
2017-07-08T05:07:28.304Z,19.4
2017-07-08T05:08:29.945Z,19.5
2017-07-08T05:09:33.260Z,19.4
2017-07-08T05:10:35.249Z,19.3
2017-07-08T05:11:38.245Z,19.4
2017-07-08T05:12:39.993Z,19.4
2017-07-08T05:13:43.188Z,19.3
2017-07-08T05:14:44.845Z,19.3
2017-07-08T05:15:48.498Z,19.2
2017-07-08T05:16:50.131Z,19.3
2017-07-08T05:17:53.436Z,19.3
2017-07-08T05:18:55.167Z,19.4
2017-07-08T05:19:58.442Z,19.3
2017-07-08T05:21:00.599Z,19.2
2017-07-08T05:22:03.480Z,19.3
2017-07-08T05:23:05.115Z,19.3
2017-07-08T05:24:08.449Z,19.3
2017-07-08T05:25:10.201Z,19.3
2017-07-08T05:26:13.400Z,19.3
2017-07-08T05:27:15.032Z,19.3
2017-07-08T05:28:18.568Z,19.3
2017-07-08T05:29:20.372Z,19.3
2017-07-08T05:30:23.557Z,19.2
2017-07-08T05:31:25.612Z,19.3
2017-07-08T05:32:28.570Z,19.2
2017-07-08T05:33:30.226Z,19.2
2017-07-08T05:34:33.457Z,19.2
2017-07-08T05:35:35.174Z,19.2
2017-07-08T05:36:38.775Z,19.2
2017-07-08T05:37:40.412Z,19.2
2017-07-08T05:38:44.123Z,19.2
2017-07-08T05:39:45.877Z,19.3
2017-07-08T05:40:49.218Z,19.2
2017-07-08T05:41:51.248Z,19.2
2017-07-08T05:42:54.281Z,19.3
2017-07-08T05:43:56.034Z,19.2
2017-07-08T05:44:59.406Z,19.2
2017-07-08T05:46:01.050Z,19.3
2017-07-08T05:47:04.539Z,19.3
2017-07-08T05:48:06.288Z,19.3
2017-07-08T05:49:09.269Z,19.3
2017-07-08T05:50:11.008Z,19.4
2017-07-08T05:51:14.630Z,19.4
2017-07-08T05:52:16.670Z,19.3
2017-07-08T05:53:19.619Z,19.3
2017-07-08T05:54:21.347Z,19.3
2017-07-08T05:55:24.441Z,19.3
2017-07-08T05:56:26.089Z,19.3
2017-07-08T05:57:29.531Z,19.4
2017-07-08T05:58:31.236Z,19.3
2017-07-08T05:59:35.025Z,19.6
2017-07-08T06:00:36.756Z,19.5
2017-07-08T06:01:40.248Z,19.5
2017-07-08T06:02:42.265Z,19.6
2017-07-08T06:03:43.909Z,19.6
2017-07-08T06:04:45.653Z,19.6
2017-07-08T06:05:48.366Z,19.7
2017-07-08T06:06:50.094Z,19.8
2017-07-08T06:07:53.531Z,19.8
2017-07-08T06:08:55.168Z,19.8
2017-07-08T06:09:58.546Z,19.9
2017-07-08T06:11:00.282Z,19.9
2017-07-08T06:12:03.508Z,20.0
2017-07-08T06:13:05.539Z,20.0
2017-07-08T06:14:08.388Z,20.0
2017-07-08T06:15:10.063Z,20.0
2017-07-08T06:16:13.506Z,20.2
2017-07-08T06:17:15.153Z,20.1
2017-07-08T06:18:18.329Z,20.1
2017-07-08T06:19:20.079Z,20.2
2017-07-08T06:20:23.663Z,20.2
2017-07-08T06:21:25.402Z,20.3
2017-07-08T06:22:28.551Z,20.3
2017-07-08T06:23:30.655Z,20.3
2017-07-08T06:24:33.801Z,20.3
2017-07-08T06:25:35.452Z,20.4
2017-07-08T06:26:38.820Z,20.3
2017-07-08T06:27:40.531Z,20.4
2017-07-08T06:28:43.790Z,20.4
2017-07-08T06:29:45.443Z,20.3
2017-07-08T06:30:48.734Z,20.3
2017-07-08T06:31:50.379Z,20.4
2017-07-08T06:32:53.786Z,20.4
2017-07-08T06:33:55.886Z,20.3
2017-07-08T06:34:59.256Z,20.3
2017-07-08T06:36:00.883Z,20.3
2017-07-08T06:37:04.185Z,20.3
2017-07-08T06:38:05.823Z,20.2
2017-07-08T06:39:09.398Z,20.3
2017-07-08T06:40:11.031Z,20.1
2017-07-08T06:41:14.239Z,20.2
2017-07-08T06:42:15.880Z,20.1
2017-07-08T06:43:19.363Z,20.1
2017-07-08T06:44:21.222Z,20.1
2017-07-08T06:45:24.626Z,20.1
2017-07-08T06:46:26.270Z,20.2
2017-07-08T06:47:29.508Z,20.1
2017-07-08T06:48:31.169Z,20.2
2017-07-08T06:49:34.623Z,20.2
2017-07-08T06:50:36.275Z,20.2
2017-07-08T06:51:39.163Z,20.2
2017-07-08T06:52:40.943Z,20.2
2017-07-08T06:53:45.029Z,20.2
2017-07-08T06:54:47.106Z,20.2
2017-07-08T06:55:50.150Z,20.2
2017-07-08T06:56:51.924Z,20.2
2017-07-08T06:57:55.121Z,20.1
2017-07-08T06:58:56.787Z,20.3
2017-07-08T07:00:00.181Z,20.3
2017-07-08T07:01:01.842Z,20.3
2017-07-08T07:02:05.373Z,20.3
2017-07-08T07:03:07.108Z,20.3
2017-07-08T07:04:10.171Z,20.3
2017-07-08T07:05:12.371Z,20.1
2017-07-08T07:06:15.278Z,20.3
2017-07-08T07:07:16.938Z,20.2
2017-07-08T07:08:20.351Z,20.2
2017-07-08T07:09:21.999Z,20.0
2017-07-08T07:10:25.341Z,20.1
2017-07-08T07:11:27.107Z,20.1
2017-07-08T07:12:30.368Z,20.1
2017-07-08T07:13:32.451Z,20.1
2017-07-08T07:14:34.193Z,20.1
2017-07-08T07:15:36.959Z,20.1
2017-07-08T07:16:39.375Z,20.1
2017-07-08T07:17:41.506Z,20.2
2017-07-08T07:18:50.196Z,20.1
2017-07-08T07:19:52.037Z,20.1
2017-07-08T07:20:54.196Z,20.1
2017-07-08T07:21:56.337Z,20.1
2017-07-08T07:22:58.251Z,20.0
2017-07-08T07:24:01.508Z,20.0
2017-07-08T07:25:03.161Z,20.1
2017-07-08T07:26:05.339Z,20.1
2017-07-08T07:27:07.290Z,20.0
2017-07-08T07:28:09.047Z,20.1
2017-07-08T07:29:10.800Z,20.1
2017-07-08T07:30:12.491Z,20.0
2017-07-08T07:31:14.627Z,20.0
2017-07-08T07:32:16.834Z,20.1
2017-07-08T07:33:19.751Z,20.1
2017-07-08T07:34:21.854Z,20.1
2017-07-08T07:35:24.487Z,20.2
2017-07-08T07:36:26.600Z,20.2
2017-07-08T07:37:28.361Z,20.2
2017-07-08T07:38:30.110Z,20.1
2017-07-08T07:39:31.867Z,20.3
2017-07-08T07:40:33.562Z,20.3
2017-07-08T07:41:35.520Z,20.3
2017-07-08T07:42:37.295Z,20.4
2017-07-08T07:43:39.070Z,20.3
2017-07-08T07:44:40.835Z,20.3
2017-07-08T07:45:42.569Z,20.3
2017-07-08T07:46:44.545Z,20.4
2017-07-08T07:47:46.272Z,20.4
2017-07-08T07:48:48.006Z,20.4
2017-07-08T07:49:49.745Z,20.4
2017-07-08T07:50:51.496Z,20.4
2017-07-08T07:51:53.618Z,20.4
2017-07-08T07:52:55.245Z,20.4
2017-07-08T07:53:57.003Z,20.4
2017-07-08T07:54:58.783Z,20.4
2017-07-08T07:56:00.576Z,20.5
2017-07-08T07:57:02.422Z,20.4
2017-07-08T07:58:04.067Z,20.4
2017-07-08T07:59:06.761Z,20.4
2017-07-08T08:00:09.169Z,20.5
2017-07-08T08:01:12.113Z,20.4
2017-07-08T08:02:14.294Z,20.4
2017-07-08T08:03:16.095Z,20.4
2017-07-08T08:04:17.840Z,20.5
2017-07-08T08:05:19.587Z,20.5
2017-07-08T08:06:21.301Z,20.5
2017-07-08T08:07:23.275Z,20.4
2017-07-08T08:08:24.929Z,20.5
2017-07-08T08:09:26.674Z,20.5
2017-07-08T08:10:28.417Z,20.5
2017-07-08T08:11:30.176Z,20.6
2017-07-08T08:12:32.158Z,20.6
2017-07-08T08:13:33.850Z,20.6
2017-07-08T08:14:35.594Z,20.6
2017-07-08T08:15:37.375Z,20.5
2017-07-08T08:16:39.468Z,20.5
2017-07-08T08:17:41.461Z,20.5
2017-07-08T08:18:44.490Z,20.5
2017-07-08T08:19:46.219Z,20.6
2017-07-08T08:20:49.582Z,20.6
2017-07-08T08:21:51.345Z,20.6
2017-07-08T08:22:54.789Z,20.6
2017-07-08T08:23:56.438Z,20.6
2017-07-08T08:24:59.634Z,20.7
2017-07-08T08:26:01.388Z,20.7
2017-07-08T08:27:04.629Z,20.7
2017-07-08T08:28:06.554Z,20.7
2017-07-08T08:29:09.599Z,20.7
2017-07-08T08:30:11.262Z,20.7
2017-07-08T08:31:14.639Z,20.8
2017-07-08T08:32:16.309Z,20.8
2017-07-08T08:33:19.765Z,20.8
2017-07-08T08:34:21.502Z,20.8
2017-07-08T08:35:24.692Z,20.9
2017-07-08T08:36:26.420Z,20.9
2017-07-08T08:37:29.766Z,20.9
2017-07-08T08:38:31.813Z,20.9
2017-07-08T08:39:33.543Z,20.8
2017-07-08T08:40:35.178Z,20.8
2017-07-08T08:41:38.537Z,20.8
2017-07-08T08:42:40.634Z,20.9
2017-07-08T08:43:43.921Z,21.0
2017-07-08T08:44:45.892Z,21.0
2017-07-08T08:45:48.841Z,21.2
2017-07-08T08:46:50.960Z,21.2
2017-07-08T08:47:52.973Z,21.2
2017-07-08T08:48:56.129Z,21.4
2017-07-08T08:49:58.307Z,21.5
2017-07-08T08:51:00.461Z,21.5
2017-07-08T08:52:02.592Z,21.6
2017-07-08T08:53:04.575Z,21.8
2017-07-08T08:54:08.545Z,21.8
2017-07-08T08:55:10.442Z,21.8
2017-07-08T08:56:12.118Z,21.8
2017-07-08T08:57:14.084Z,22.0
2017-07-08T08:58:18.494Z,22.1
2017-07-08T08:59:20.861Z,22.1
2017-07-08T09:00:22.976Z,22.2
2017-07-08T09:01:25.059Z,22.4
2017-07-08T09:02:27.060Z,22.5
2017-07-08T09:03:29.146Z,22.6
2017-07-08T09:04:31.561Z,22.8
2017-07-08T09:05:33.632Z,23.1
2017-07-08T09:06:35.556Z,23.5
2017-07-08T09:07:37.602Z,23.7
2017-07-08T09:08:39.405Z,24.3
2017-07-08T09:09:41.816Z,24.5
2017-07-08T09:10:43.833Z,24.9
2017-07-08T09:11:45.908Z,25.7
2017-07-08T09:12:47.981Z,26.4
2017-07-08T09:13:50.026Z,27.1
2017-07-08T09:14:52.560Z,27.8
2017-07-08T09:15:54.569Z,28.1
2017-07-08T09:16:56.357Z,28.0
2017-07-08T09:17:58.277Z,28.0
2017-07-08T09:19:00.087Z,27.9
2017-07-08T09:20:06.859Z,27.8
2017-07-08T09:21:08.574Z,28.2
2017-07-08T09:22:10.697Z,28.9
2017-07-08T09:23:12.814Z,29.3
2017-07-08T09:24:14.771Z,29.9
2017-07-08T09:25:19.065Z,29.8
2017-07-08T09:26:21.228Z,29.8
2017-07-08T09:27:23.194Z,30.0
2017-07-08T09:28:25.258Z,30.4
2017-07-08T09:29:27.312Z,31.0
2017-07-08T09:30:29.725Z,31.3
2017-07-08T09:31:31.652Z,31.8
2017-07-08T09:32:33.762Z,31.8
2017-07-08T09:33:37.214Z,31.6
2017-07-08T09:34:39.089Z,31.5
2017-07-08T09:35:41.137Z,31.4
2017-07-08T09:36:43.000Z,31.4
2017-07-08T09:37:44.855Z,31.7
2017-07-08T09:38:46.699Z,32.0
2017-07-08T09:39:48.537Z,32.3
2017-07-08T09:40:50.308Z,32.4
2017-07-08T09:41:51.972Z,32.7
2017-07-08T09:42:53.748Z,32.7
2017-07-08T09:43:55.880Z,32.5
2017-07-08T09:44:57.788Z,32.1
2017-07-08T09:45:59.471Z,31.9
2017-07-08T09:47:01.217Z,31.7
2017-07-08T09:48:02.892Z,31.4
2017-07-08T09:49:06.805Z,31.3
2017-07-08T09:50:08.584Z,31.3
2017-07-08T09:51:10.623Z,31.3
2017-07-08T09:52:12.501Z,31.4
2017-07-08T09:53:14.378Z,31.6
2017-07-08T09:54:16.727Z,31.7
2017-07-08T09:55:18.539Z,31.8
2017-07-08T09:56:20.341Z,31.7
2017-07-08T09:57:22.126Z,31.6
2017-07-08T09:58:23.866Z,31.4
2017-07-08T09:59:26.303Z,31.0
2017-07-08T10:00:28.236Z,30.7
2017-07-08T10:01:30.199Z,30.2
2017-07-08T10:02:32.167Z,30.0
2017-07-08T10:03:34.060Z,29.6
2017-07-08T10:04:36.206Z,29.3
2017-07-08T10:05:38.567Z,29.0
2017-07-08T10:06:40.486Z,28.5
2017-07-08T10:07:42.516Z,28.2
2017-07-08T10:08:44.526Z,28.1
2017-07-08T10:09:47.416Z,28.0
2017-07-08T10:10:49.463Z,27.8
2017-07-08T10:11:51.358Z,27.6
2017-07-08T10:12:53.371Z,27.4
2017-07-08T10:13:55.151Z,27.3
2017-07-08T10:14:57.578Z,26.8
2017-07-08T10:15:59.548Z,26.4
2017-07-08T10:17:01.497Z,26.1
2017-07-08T10:18:03.446Z,25.9
2017-07-08T10:19:05.384Z,25.9
2017-07-08T10:20:07.650Z,25.8
2017-07-08T10:21:09.673Z,25.8
2017-07-08T10:22:11.704Z,26.0
2017-07-08T10:23:13.737Z,26.0
2017-07-08T10:24:15.802Z,26.0
2017-07-08T10:25:19.672Z,25.9
2017-07-08T10:26:21.748Z,25.7
2017-07-08T10:27:23.798Z,25.4
2017-07-08T10:28:29.923Z,25.4
2017-07-08T10:29:31.975Z,25.2
2017-07-08T10:30:39.444Z,25.2
2017-07-08T10:31:41.326Z,25.1
2017-07-08T10:32:44.071Z,25.1
2017-07-08T10:33:46.567Z,25.1
2017-07-08T10:34:50.949Z,25.1
2017-07-08T10:35:53.348Z,25.5
2017-07-08T10:36:55.277Z,25.9
2017-07-08T10:37:57.265Z,26.0
2017-07-08T10:38:59.367Z,26.3
2017-07-08T10:40:01.671Z,26.4
2017-07-08T10:41:04.168Z,26.8
2017-07-08T10:42:06.163Z,27.1
2017-07-08T10:43:08.419Z,27.5
2017-07-08T10:44:10.358Z,28.0
2017-07-08T10:45:12.550Z,28.7
2017-07-08T10:46:15.237Z,28.8
2017-07-08T10:47:18.812Z,28.6
2017-07-08T10:48:20.811Z,28.0
2017-07-08T10:49:23.595Z,27.8
2017-07-08T10:50:25.441Z,27.6
2017-07-08T10:51:27.540Z,27.8
2017-07-08T10:52:29.511Z,28.1
2017-07-08T10:53:31.661Z,28.4
2017-07-08T10:54:34.278Z,28.9
2017-07-08T10:55:36.482Z,29.3
2017-07-08T10:56:38.848Z,29.7
2017-07-08T10:57:40.731Z,30.1
2017-07-08T10:58:42.711Z,30.5
2017-07-08T10:59:44.704Z,30.8
2017-07-08T11:00:46.868Z,30.9
2017-07-08T11:01:49.194Z,31.1
2017-07-08T11:02:51.107Z,31.3
2017-07-08T11:03:52.879Z,31.5
2017-07-08T11:04:56.121Z,31.4
2017-07-08T11:05:58.612Z,31.3
2017-07-08T11:07:00.995Z,31.6
2017-07-08T11:08:02.927Z,31.8
2017-07-08T11:09:04.872Z,31.7
2017-07-08T11:10:06.747Z,31.7
2017-07-08T11:11:08.621Z,31.7
2017-07-08T11:12:11.303Z,31.5
2017-07-08T11:13:13.301Z,31.4
2017-07-08T11:14:15.382Z,31.2
2017-07-08T11:15:17.124Z,31.1
2017-07-08T11:16:19.817Z,31.0
2017-07-08T11:17:22.583Z,31.1
2017-07-08T11:18:24.582Z,31.3
2017-07-08T11:19:26.594Z,31.4
2017-07-08T11:20:29.944Z,31.7
2017-07-08T11:21:31.842Z,32.0
2017-07-08T11:22:34.346Z,32.0
2017-07-08T11:23:36.355Z,31.6
2017-07-08T11:24:38.347Z,31.5
2017-07-08T11:25:40.773Z,31.4
2017-07-08T11:26:42.605Z,31.4
2017-07-08T11:27:44.956Z,31.4
2017-07-08T11:28:46.975Z,31.4
2017-07-08T11:29:50.172Z,31.8
2017-07-08T11:30:52.618Z,32.0
2017-07-08T11:31:54.924Z,31.9
2017-07-08T11:32:57.412Z,31.8
2017-07-08T11:33:59.255Z,31.6
2017-07-08T11:35:01.104Z,31.2
2017-07-08T11:36:02.984Z,30.9
2017-07-08T11:37:04.967Z,30.6
2017-07-08T11:38:07.219Z,30.6
2017-07-08T11:39:09.314Z,30.6
2017-07-08T11:40:11.547Z,30.8
2017-07-08T11:41:13.912Z,30.8
2017-07-08T11:42:16.283Z,30.4
2017-07-08T11:43:18.672Z,30.2
2017-07-08T11:44:20.537Z,29.6
2017-07-08T11:45:22.479Z,29.4
2017-07-08T11:46:24.392Z,29.2
2017-07-08T11:47:26.481Z,28.9
2017-07-08T11:48:28.836Z,28.6
2017-07-08T11:49:31.712Z,28.3
2017-07-08T11:50:33.706Z,28.2
2017-07-08T11:51:35.812Z,28.0
2017-07-08T11:52:37.765Z,27.9
2017-07-08T11:53:40.099Z,27.7
2017-07-08T11:54:42.076Z,27.5
2017-07-08T11:55:45.602Z,27.4
2017-07-08T11:56:47.918Z,27.3
2017-07-08T11:57:49.993Z,27.1
2017-07-08T11:58:52.303Z,27.0
2017-07-08T11:59:54.464Z,26.9
2017-07-08T12:00:56.293Z,26.8
2017-07-08T12:01:58.232Z,26.6
2017-07-08T12:03:00.227Z,26.6
2017-07-08T12:04:03.331Z,26.6
2017-07-08T12:05:06.068Z,26.6
2017-07-08T12:06:08.511Z,26.5
2017-07-08T12:07:10.487Z,26.4
2017-07-08T12:08:12.505Z,26.4
2017-07-08T12:09:15.230Z,26.3
2017-07-08T12:10:17.203Z,26.2
2017-07-08T12:11:19.342Z,26.1
2017-07-08T12:12:21.771Z,26.1
2017-07-08T12:13:23.816Z,26.1
2017-07-08T12:14:26.183Z,26.1
2017-07-08T12:15:28.299Z,26.0
2017-07-08T12:16:30.347Z,25.9
2017-07-08T12:17:33.285Z,25.9
2017-07-08T12:18:35.431Z,25.8
2017-07-08T12:19:38.654Z,25.9
2017-07-08T12:20:40.831Z,25.9
2017-07-08T12:21:42.949Z,25.9
2017-07-08T12:22:47.545Z,25.8
2017-07-08T12:23:49.521Z,25.8
2017-07-08T12:24:51.764Z,25.7
2017-07-08T12:26:01.772Z,25.8
2017-07-08T12:27:03.979Z,25.8
2017-07-08T12:28:05.978Z,25.8
2017-07-08T12:29:07.917Z,25.8
2017-07-08T12:30:10.051Z,25.8
2017-07-08T12:31:12.927Z,25.8
2017-07-08T12:32:14.881Z,25.8
2017-07-08T12:33:17.173Z,25.8
2017-07-08T12:34:19.040Z,25.8
2017-07-08T12:35:21.205Z,25.9
2017-07-08T12:36:23.192Z,25.9
2017-07-08T12:37:25.151Z,26.0
2017-07-08T12:38:27.245Z,26.0
2017-07-08T12:39:29.293Z,25.9
2017-07-08T12:40:31.646Z,25.9
2017-07-08T12:41:33.711Z,25.8
2017-07-08T12:42:35.571Z,25.8
2017-07-08T12:43:37.558Z,25.8
2017-07-08T12:44:39.886Z,25.8
2017-07-08T12:45:42.432Z,25.6
2017-07-08T12:46:44.513Z,25.6
2017-07-08T12:47:46.904Z,25.5
2017-07-08T12:48:48.904Z,25.4
2017-07-08T12:49:51.296Z,25.4
2017-07-08T12:50:53.577Z,25.4
2017-07-08T12:51:55.762Z,25.3
2017-07-08T12:52:58.170Z,25.2
2017-07-08T12:54:00.195Z,25.3
2017-07-08T12:55:02.972Z,25.2
2017-07-08T12:56:05.249Z,25.2
2017-07-08T12:57:07.258Z,25.1
2017-07-08T12:58:09.247Z,25.1
2017-07-08T12:59:11.206Z,25.1
2017-07-08T13:00:13.122Z,25.1
2017-07-08T13:01:15.365Z,25.1
2017-07-08T13:02:17.222Z,25.1
2017-07-08T13:03:19.103Z,25.1
2017-07-08T13:04:21.041Z,25.1
2017-07-08T13:05:22.816Z,25.0
2017-07-08T13:06:25.281Z,25.2
2017-07-08T13:07:27.341Z,25.1
2017-07-08T13:08:29.388Z,25.1
2017-07-08T13:09:31.345Z,25.1
2017-07-08T13:10:33.277Z,25.1
2017-07-08T13:11:36.015Z,25.1
2017-07-08T13:12:40.273Z,25.0
2017-07-08T13:13:42.207Z,25.1
2017-07-08T13:14:44.338Z,25.1
2017-07-08T13:15:46.450Z,25.1
2017-07-08T13:16:48.802Z,25.2
2017-07-08T13:17:50.939Z,25.1
2017-07-08T13:18:52.850Z,25.2
2017-07-08T13:19:54.802Z,25.2
2017-07-08T13:20:57.488Z,25.1
2017-07-08T13:21:59.779Z,25.2
2017-07-08T13:23:02.058Z,25.1
2017-07-08T13:24:05.320Z,25.1
2017-07-08T13:25:07.814Z,25.3
2017-07-08T13:26:09.913Z,25.2
2017-07-08T13:27:14.366Z,25.2
2017-07-08T13:28:16.512Z,25.2
2017-07-08T13:29:18.559Z,25.2
2017-07-08T13:30:21.456Z,25.3
2017-07-08T13:31:23.476Z,25.2
2017-07-08T13:32:27.556Z,25.4
2017-07-08T13:33:29.335Z,25.3
2017-07-08T13:34:31.996Z,25.2
2017-07-08T13:35:33.935Z,25.3
2017-07-08T13:36:36.075Z,25.3
2017-07-08T13:37:38.558Z,25.3
2017-07-08T13:38:41.269Z,25.3
2017-07-08T13:39:43.306Z,25.4
2017-07-08T13:40:46.618Z,25.5
2017-07-08T13:41:48.727Z,25.6
2017-07-08T13:42:51.127Z,25.6
2017-07-08T13:43:53.248Z,25.6
2017-07-08T13:44:55.495Z,25.7
2017-07-08T13:45:57.955Z,25.7
2017-07-08T13:47:00.198Z,25.5
2017-07-08T13:48:02.905Z,25.5
2017-07-08T13:49:04.979Z,25.5